Sde-Haifa Haifa, Israel

1:30 PM IDT on September 21, 2014 (GMT +0300)
IISRAELK4 | Change Station
CLOSE
Current Station
Personal Weather Station
Location: Kibbutz Mizra, ISRAEL
Elevation: 305 ft
Nearby Weather Stations

Elev 305 ft 32.65 °N, 35.28 °E | Updated 4 minutes ago

Partly Cloudy
Partly Cloudy
88.0 °F
Feels Like 87 °F
N
5.0
Wind Variable Wind from NNW
Gusts 5.0 mph

Today
High -- | Low -- °F
--% Chance of Precip.
Yesterday
High -- | Low -- °F
Precip. -- in
6:27 AM 6:38 PM
Waning Crescent, 7% visible
Pressure 29.89 in
Visibility 6.2 miles
Clouds Few 4000 ft
Heat Index 87 °F
Dew Point 57 °F
Humidity 35%
Rainfall 0.00 in
Snow Depth Not available.
UV 11 out of 12
Pollen Not available.
Air Quality Not available.
Flu Activity Not available.
METAR LLHA 210950Z 31009KT 280V340 9999 FEW040 29/16 Q1012

More Conditions Fewer Conditions

Pressure 29.89 in
Visibility 6.2 miles
Clouds Few 4000 ft
Heat Index 87 °F
Dew Point 57 °F
Humidity 35%
Rainfall 0.00 in
Snow Depth Not available.
UV 11 out of 12
Pollen Not available.
Air Quality Not available.
Flu Activity Not available.
METAR LLHA 210950Z 31009KT 280V340 9999 FEW040 29/16 Q1012

More Conditions Fewer Conditions

10-Day Weather Forecast

Almanac

Astronomy

Sep. 21, 2014 Rise Set
Actual Time 6:27 AM IDT 6:38 PM IDT
Civil Twilight 6:02 AM IDT 7:02 PM IDT
Nautical Twilight 5:33 AM IDT 7:31 PM IDT
Astronomical Twilight 5:04 AM IDT 8:00 PM IDT
Moon 3:49 AM IDT 4:57 PM IDT
Length of Visible Light 13h 00m
Length of Day
12h 11m
Tomorrow will be 2m 0s shorter.
Waning Crescent, 7% of the Moon is Illuminated
Today
Waning Crescent
Sep 24
New
Oct 1
First Quarter
Oct 8
Full
Oct 15
Last Quarter

Yesterday's Extremes

Country Highs Country Lows

Community

WunderPhotos

Upload Photos

1,755,107 photos uploaded!

Nearby

Snow Depth

Not available.

Earthquake Activity

City Distance Mag. Time & Date
No recent earthquake activity has been reported nearby.
Minimum magnitude displayed is 2.5.

Coastal Water Temperatures

Place Temperature
No Stations Reporting

Nearby Weather Stations